Time;durP1;ratioP1;P1;durP2;ratioP2;P2;SDS_P1;SDS_P2;PMS_P1;PMS_P2;Temp;Humidity;BMP_temperature;BMP_pressure;BME280_temperature;BME280_humidity;BME280_pressure;Samples;Min_cycle;Max_cycle;Signal;HPM_P1;HPM_P2
2022/10/16 12:01:07;;;;;;;15.75;8.68;;;;;;;;;;5101423;27;20417;-73
2022/10/16 12:03:39;;;;;;;15.95;8.45;;;;;;;;;;5076337;28;20025;-74
2022/10/16 12:06:11;;;;;;;15.02;10.15;;;;;;;;;;5048759;28;20024;-74
2022/10/16 12:08:38;;;;;;;9.00;7.03;;;;;;;;;;5049759;28;20060;-77
2022/10/16 12:11:27;;;;;;;15.68;11.75;;;;;;;;;;5064156;28;20061;-77
2022/10/16 12:14:04;;;;;;;14.95;9.02;;;;;;;;;;5046709;28;20039;-76
2022/10/16 12:16:30;;;;;;;14.13;10.07;;;;;;;;;;5049687;28;20017;-75
2022/10/16 12:19:28;;;;;;;23.27;19.88;;;;;;;;;;5063128;28;20028;-76
2022/10/16 12:21:56;;;;;;;9.98;8.55;;;;;;;;;;5047502;28;20060;-76
2022/10/16 12:24:29;;;;;;;10.95;7.72;;;;;;;;;;5030249;28;20049;-77
2022/10/16 12:26:55;;;;;;;9.57;7.40;;;1075.70;896.00;;;;;;5030615;28;20021;-76
2022/10/16 12:29:34;;;;;;;13.18;8.38;;;;;;;;;;5035017;28;20631;-76
2022/10/16 12:32:01;;;;;;;9.82;8.35;;;1126.60;896.00;;;;;;5024172;28;20049;-76
2022/10/16 12:34:33;;;;;;;8.73;6.68;;;1126.50;896.00;;;;;;5017045;28;20191;-77
2022/10/16 12:37:11;;;;;;;10.23;8.60;;;1126.40;896.00;;;;;;5026270;28;20595;-79
2022/10/16 12:39:37;;;;;;;7.88;7.10;;;1101.20;870.40;;;;;;5004117;28;20025;-77
2022/10/16 12:44:44;;;;;;;86.80;72.18;;;1101.40;870.40;;;;;;5352142;22;20049;-79
2022/10/16 12:47:36;;;;;;;93.53;78.53;;;1101.40;870.40;;;;;;4998738;28;20033;-77
2022/10/16 12:50:02;;;;;;;11.95;10.00;;;1101.50;870.40;;;;;;4900216;28;20121;-78
2022/10/16 12:52:36;;;;;;;77.90;66.38;;;1101.70;844.80;;;;;;5046877;28;20566;-78
2022/10/16 12:55:03;;;;;;;75.65;64.45;;;;;;;;;;5042144;28;20036;-76
2022/10/16 12:57:41;;;;;;;53.63;41.63;;;1101.20;870.40;;;;;;5032025;28;20099;-77
2022/10/16 13:00:38;;;;;;;75.75;63.45;;;1076.10;947.20;;;;;;5047487;28;20045;-76
2022/10/16 13:03:31;;;;;;;38.83;31.35;;;1101.20;896.00;;;;;;5039874;28;20100;-78
2022/10/16 13:06:18;;;;;;;68.07;52.60;;;1075.80;870.40;;;;;;5040894;28;20030;-77
2022/10/16 13:09:06;;;;;;;206.32;173.57;;;1075.20;921.60;;;;;;5043347;28;20036;-77
2022/10/16 13:11:44;;;;;;;538.15;482.10;;;;;;;;;;5027337;28;20029;-78
2022/10/16 13:14:22;;;;;;;116.63;100.22;;;;;;;;;;5033058;28;20112;-75
2022/10/16 13:17:00;;;;;;;18.38;15.93;;;;;;;;;;5026487;28;20108;-77
2022/10/16 13:19:26;;;;;;;39.15;30.75;;;;;;;;;;5036023;28;20452;-78
2022/10/16 13:21:57;;;;;;;78.70;69.15;;;;;;;;;;4874152;28;20510;-77
2022/10/16 13:24:23;;;;;;;54.75;49.05;;;;;;;;;;5053699;28;20036;-77
2022/10/16 13:26:49;;;;;;;74.68;65.97;;;;;;;;;;5028481;28;20395;-76
2022/10/16 13:29:16;;;;;;;48.58;40.63;;;;;;;;;;5021201;28;20464;-76
2022/10/16 13:31:43;;;;;;;37.67;31.48;;;;;;;;;;5017066;28;20080;-77
2022/10/16 13:34:23;;;;;;;19.70;16.95;;;;;;;;;;5015495;28;20085;-76
2022/10/16 13:36:50;;;;;;;25.40;22.77;;;;;;;;;;5014826;28;20021;-78
2022/10/16 13:39:24;;;;;;;25.08;20.20;;;;;;;;;;5015069;28;20087;-80
2022/10/16 13:42:03;;;;;;;20.50;16.70;;;;;;;;;;5006066;28;20037;-73
2022/10/16 13:44:31;;;;;;;24.52;20.42;;;;;;;;;;5025149;28;20103;-81
2022/10/16 13:47:01;;;;;;;108.40;97.40;;;;;;;;;;5034990;28;20018;-77
2022/10/16 13:49:27;;;;;;;22.13;19.73;;;;;;;;;;5035424;28;20053;-80
2022/10/16 13:51:58;;;;;;;18.48;14.75;;;;;;;;;;5027985;28;20101;-80
2022/10/16 13:54:30;;;;;;;42.13;37.53;;;;;;;;;;5023303;28;20512;-77
2022/10/16 13:57:06;;;;;;;15.70;13.35;;;;;;;;;;5013643;28;20541;-81
2022/10/16 13:59:38;;;;;;;15.32;9.77;;;;;;;;;;5020961;28;20550;-75
2022/10/16 14:02:43;;;;;;;9.77;8.40;;;;;;;;;;5240992;22;20052;-75
2022/10/16 14:05:41;;;;;;;18.40;15.77;;;;;;;;;;5403751;22;20341;-78
2022/10/16 14:08:11;;;;;;;9.85;7.88;;;;;;;;;;5087955;28;20032;-73
2022/10/16 14:10:38;;;;;;;27.40;20.65;;;;;;;;;;5075666;28;20023;-75
2022/10/16 14:13:05;;;;;;;25.77;22.08;;;;;;;;;;5086286;28;20030;-75
2022/10/16 14:15:36;;;;;;;28.33;24.92;;;;;;;;;;5066444;28;20591;-74
2022/10/16 14:18:02;;;;;;;42.08;33.35;;;;;;;;;;5099570;28;20023;-76
2022/10/16 14:20:30;;;;;;;18.92;15.63;;;;;;;;;;5095819;28;20385;-74
2022/10/16 14:23:19;;;;;;;17.83;12.27;;;;;;;;;;5113331;28;20157;-74
2022/10/16 14:25:46;;;;;;;17.67;14.52;;;;;;;;;;5103727;28;20058;-77
2022/10/16 14:28:14;;;;;;;17.27;14.38;;;;;;;;;;5113769;28;20063;-77
2022/10/16 14:30:50;;;;;;;17.88;15.00;;;;;;;;;;5111995;28;20035;-74
2022/10/16 14:33:22;;;;;;;21.23;14.00;;;;;;;;;;5093177;28;20027;-75
2022/10/16 14:35:59;;;;;;;20.35;14.57;;;;;;;;;;5076051;28;20396;-75
2022/10/16 14:38:25;;;;;;;25.58;14.07;;;;;;;;;;5087864;28;20027;-74
2022/10/16 14:40:51;;;;;;;14.48;10.23;;;;;;;;;;5082647;28;20036;-77
2022/10/16 14:43:25;;;;;;;12.93;11.30;;;;;;;;;;5102805;28;20389;-74
2022/10/16 14:45:55;;;;;;;17.90;13.60;;;;;;;;;;5111268;28;20031;-75
2022/10/16 14:48:21;;;;;;;13.53;11.00;;;;;;;;;;5113970;28;20030;-75
2022/10/16 14:50:47;;;;;;;14.98;12.40;;;;;;;;;;5105640;28;20039;-73
2022/10/16 14:53:13;;;;;;;50.80;32.40;;;;;;;;;;5082380;28;20478;-72
2022/10/16 14:55:40;;;;;;;111.82;84.50;;;;;;;;;;5072700;28;20048;-73
2022/10/16 14:58:08;;;;;;;62.03;46.97;;;;;;;;;;5084388;28;20024;-74
2022/10/16 15:00:34;;;;;;;54.78;37.55;;;;;;;;;;5077078;28;20125;-75
2022/10/16 15:03:00;;;;;;;39.25;25.55;;;;;;;;;;5086650;28;20505;-73
2022/10/16 15:05:27;;;;;;;53.47;36.53;;;;;;;;;;5108256;28;20055;-72
2022/10/16 15:07:54;;;;;;;50.50;34.97;;;;;;;;;;5113352;28;20036;-75
2022/10/16 15:10:22;;;;;;;55.25;36.22;;;;;;;;;;5095042;28;20026;-75
2022/10/16 15:12:48;;;;;;;34.22;23.92;;;;;;;;;;5113294;28;20063;-75
2022/10/16 15:15:23;;;;;;;20.00;13.10;;;;;;;;;;5113378;28;20102;-75
2022/10/16 15:17:52;;;;;;;22.63;14.57;;;;;;;;;;5113318;28;20058;-76
2022/10/16 15:20:18;;;;;;;30.58;21.20;;;;;;;;;;5094821;28;20122;-74
2022/10/16 15:22:44;;;;;;;26.33;20.80;;;;;;;;;;5094679;28;20030;-75
2022/10/16 15:25:26;;;;;;;27.42;17.85;;;;;;;;;;5113369;28;20023;-72
2022/10/16 15:27:52;;;;;;;51.47;34.67;;;;;;;;;;5089024;28;20025;-72
2022/10/16 15:30:18;;;;;;;26.50;20.48;;;;;;;;;;5087875;28;20020;-73
2022/10/16 15:32:44;;;;;;;71.82;54.47;;;;;;;;;;5074282;28;20020;-72
2022/10/16 15:35:10;;;;;;;65.47;49.53;;;;;;;;;;5063476;28;20036;-72
2022/10/16 15:37:36;;;;;;;47.55;37.10;;;;;;;;;;5091021;28;20020;-72
2022/10/16 15:40:03;;;;;;;42.67;34.55;;;;;;;;;;5084469;28;20065;-73
2022/10/16 15:42:29;;;;;;;65.00;53.90;;;;;;;;;;5083532;28;20101;-72
2022/10/16 15:44:55;;;;;;;87.40;75.25;;;;;;;;;;5069075;28;20497;-75
2022/10/16 15:47:21;;;;;;;53.83;45.10;;;;;;;;;;5080312;28;20430;-76
2022/10/16 15:49:47;;;;;;;41.25;31.15;;;;;;;;;;5074822;28;20548;-73
2022/10/16 15:52:13;;;;;;;46.78;31.23;;;;;;;;;;5080696;28;20025;-75
2022/10/16 15:54:39;;;;;;;54.55;30.65;;;;;;;;;;5090237;28;20051;-76
2022/10/16 15:57:05;;;;;;;34.35;24.92;;;;;;;;;;5081432;28;20024;-75
2022/10/16 15:59:31;;;;;;;42.60;32.42;;;;;;;;;;5089835;28;20043;-75
2022/10/16 16:01:57;;;;;;;35.53;26.55;;;;;;;;;;5073699;28;20028;-74
2022/10/16 16:04:23;;;;;;;45.15;30.58;;;;;;;;;;5082618;28;20111;-76
2022/10/16 16:06:49;;;;;;;31.85;24.33;;;;;;;;;;5076792;28;20126;-72
2022/10/16 16:09:15;;;;;;;32.58;24.58;;;;;;;;;;5094029;28;20481;-74
2022/10/16 16:11:42;;;;;;;43.72;28.90;;;;;;;;;;5112786;28;20152;-69
2022/10/16 16:14:11;;;;;;;44.28;32.10;;;;;;;;;;5112559;28;20024;-71
2022/10/16 16:16:37;;;;;;;56.28;37.33;;;;;;;;;;5098874;28;20020;-73
2022/10/16 16:19:06;;;;;;;67.10;42.88;;;;;;;;;;5109568;28;20451;-72
2022/10/16 16:21:33;;;;;;;60.35;36.38;;;;;;;;;;5094293;28;20400;-72
2022/10/16 16:23:59;;;;;;;64.43;43.10;;;;;;;;;;5112476;28;20083;-72
2022/10/16 16:26:27;;;;;;;55.05;36.63;;;;;;;;;;5109498;28;20030;-73
2022/10/16 16:28:56;;;;;;;37.75;27.63;;;;;;;;;;5082305;28;20430;-73
2022/10/16 16:31:24;;;;;;;45.63;29.58;;;;;;;;;;5065963;28;20065;-73
2022/10/16 16:33:51;;;;;;;44.60;32.70;;;;;;;;;;5081057;28;20109;-73
2022/10/16 16:36:17;;;;;;;40.65;29.95;;;;;;;;;;5080201;28;20026;-80
2022/10/16 16:38:44;;;;;;;36.35;26.85;;;;;;;;;;5085132;28;20035;-80
2022/10/16 16:41:17;;;;;;;44.10;28.42;;;;;;;;;;5098722;28;20120;-80
2022/10/16 16:43:43;;;;;;;33.33;26.73;;;;;;;;;;5102783;28;20028;-80
2022/10/16 16:46:09;;;;;;;37.65;25.20;;;;;;;;;;5076246;28;20111;-78
2022/10/16 16:48:36;;;;;;;32.42;25.13;;;;;;;;;;5077954;28;20024;-79
2022/10/16 16:51:15;;;;;;;41.60;26.10;;;;;;;;;;5078029;28;20024;-79
2022/10/16 16:53:41;;;;;;;29.30;22.15;;;;;;;;;;5096431;28;20031;-80
2022/10/16 16:56:07;;;;;;;32.75;24.85;;;;;;;;;;5074735;28;20343;-79
2022/10/16 16:58:33;;;;;;;35.38;25.50;;;;;;;;;;5093349;28;20445;-79
2022/10/16 17:01:01;;;;;;;37.40;27.08;;;;;;;;;;5085299;28;20428;-79
2022/10/16 17:03:32;;;;;;;37.80;28.50;;;;;;;;;;5089794;28;20051;-80
2022/10/16 17:05:59;;;;;;;44.78;29.88;;;;;;;;;;5116101;28;20094;-79
2022/10/16 17:08:27;;;;;;;33.97;26.13;;;;;;;;;;5097371;28;20401;-80
2022/10/16 17:10:54;;;;;;;42.25;30.40;;;;;;;;;;5084727;28;20032;-80
2022/10/16 17:13:27;;;;;;;41.55;28.65;;;;;;;;;;5081202;28;20532;-79
2022/10/16 17:15:54;;;;;;;52.10;36.72;;;;;;;;;;5081570;28;20047;-80
2022/10/16 17:18:21;;;;;;;44.40;30.92;;;;;;;;;;5089565;28;20035;-79
2022/10/16 17:20:47;;;;;;;56.40;33.00;;;;;;;;;;5089589;28;20038;-79
2022/10/16 17:23:14;;;;;;;38.28;29.40;;;;;;;;;;5078613;28;20115;-80
2022/10/16 17:25:41;;;;;;;48.67;34.85;;;;;;;;;;5079782;28;20043;-79
2022/10/16 17:28:07;;;;;;;46.72;32.65;;;;;;;;;;5074183;28;20025;-79
2022/10/16 17:30:34;;;;;;;41.72;28.08;;;;;;;;;;5073036;28;20024;-79
2022/10/16 17:33:01;;;;;;;46.08;32.78;;;;;;;;;;5097569;28;20043;-78
2022/10/16 17:35:28;;;;;;;41.70;33.33;;;;;;;;;;5115358;28;20031;-79
2022/10/16 17:37:54;;;;;;;45.88;34.13;;;;;;;;;;5095553;28;20032;-80
2022/10/16 17:40:20;;;;;;;53.50;38.55;;;;;;;;;;5077761;28;20477;-79
2022/10/16 17:42:49;;;;;;;42.80;33.13;;;;;;;;;;5095835;28;20056;-79
2022/10/16 17:45:15;;;;;;;46.15;34.03;;;;;;;;;;5104308;28;20031;-79
2022/10/16 17:47:41;;;;;;;44.50;33.67;;;;;;;;;;5097942;28;20015;-78
2022/10/16 17:50:08;;;;;;;44.97;33.22;;;;;;;;;;5097070;28;20074;-79
2022/10/16 17:52:35;;;;;;;42.85;34.00;;;;;;;;;;5097005;28;20024;-80
2022/10/16 17:55:01;;;;;;;46.95;34.38;;;;;;;;;;5089525;28;20032;-78
2022/10/16 17:57:27;;;;;;;51.50;34.55;;;;;;;;;;5077112;28;20032;-78
2022/10/16 17:59:56;;;;;;;48.20;36.55;;;;;;;;;;5096190;28;20114;-79
2022/10/16 18:02:22;;;;;;;49.00;36.15;;;;;;;;;;5081431;28;20025;-78
2022/10/16 18:04:49;;;;;;;52.33;33.03;;;;;;;;;;5074436;28;20028;-78
2022/10/16 18:07:15;;;;;;;44.10;32.40;;;;;;;;;;5073348;28;20143;-79
2022/10/16 18:09:41;;;;;;;42.70;32.83;;;;;;;;;;5085719;28;20027;-79
2022/10/16 18:12:07;;;;;;;41.00;30.40;;;;;;;;;;5082858;23;20138;-78
2022/10/16 18:14:34;;;;;;;43.80;29.17;;;;;;;;;;5108821;28;20024;-78
2022/10/16 18:17:03;;;;;;;42.47;29.95;;;;;;;;;;5114351;28;20079;-78
2022/10/16 18:19:29;;;;;;;47.53;31.88;;;;;;;;;;5101554;28;20043;-78
2022/10/16 18:21:55;;;;;;;41.45;30.92;;;;;;;;;;5094564;28;20447;-78
2022/10/16 18:24:24;;;;;;;34.65;25.73;;;;;;;;;;5114540;28;20024;-78
2022/10/16 18:26:55;;;;;;;41.88;26.13;;;;;;;;;;5096077;28;20043;-79
2022/10/16 18:29:21;;;;;;;31.47;25.40;;;;;;;;;;5081885;28;20485;-79
2022/10/16 18:31:48;;;;;;;32.72;23.38;;;;;;;;;;5076326;28;20024;-77
2022/10/16 18:34:29;;;;;;;30.40;20.98;;;;;;;;;;5068288;28;20024;-79
2022/10/16 18:37:01;;;;;;;26.67;19.40;;;;;;;;;;5059731;28;20029;-78
2022/10/16 18:40:05;;;;;;;29.23;22.60;;;;;;;;;;5069388;28;20119;-80
2022/10/16 18:42:44;;;;;;;29.92;22.48;;;;;;;;;;5057247;28;20044;-79
2022/10/16 18:45:18;;;;;;;32.17;25.10;;;;;;;;;;5094149;28;20107;-78
2022/10/16 18:47:47;;;;;;;29.00;22.33;;;;;;;;;;5058380;28;20016;-78
2022/10/16 18:50:13;;;;;;;29.48;22.38;;;;;;;;;;5055763;28;20558;-78
2022/10/16 18:52:39;;;;;;;29.10;23.90;;;;;;;;;;5055467;28;20044;-78
2022/10/16 18:55:12;;;;;;;32.88;24.00;;;;;;;;;;5089061;28;20032;-77
2022/10/16 18:57:49;;;;;;;34.45;25.35;;;;;;;;;;5090082;28;20069;-78
2022/10/16 19:00:21;;;;;;;33.28;24.98;;;;;;;;;;5067171;28;20028;-78
2022/10/16 19:02:56;;;;;;;29.15;25.25;;;;;;;;;;5069696;28;20122;-77
2022/10/16 19:05:22;;;;;;;36.28;25.33;;;;;;;;;;5107087;22;20051;-77
2022/10/16 19:07:48;;;;;;;30.90;23.85;;;;;;;;;;5094767;28;20020;-78
2022/10/16 19:10:14;;;;;;;38.50;25.23;;;;;;;;;;5074796;28;20028;-79
2022/10/16 19:12:40;;;;;;;35.33;24.58;;;;;;;;;;5106315;28;20061;-79
2022/10/16 19:15:07;;;;;;;33.88;24.95;;;;;;;;;;5080836;28;20030;-78
2022/10/16 19:17:34;;;;;;;31.25;22.90;;;;;;;;;;5095204;28;20431;-77
2022/10/16 19:20:00;;;;;;;28.85;23.40;;;;;;;;;;5095019;28;20023;-79
2022/10/16 19:22:50;;;;;;;34.88;28.70;;;;;;;;;;5095559;28;20016;-79
2022/10/16 19:25:15;;;;;;;34.15;25.98;;;;;;;;;;5113246;28;20034;-79
2022/10/16 19:27:41;;;;;;;37.72;25.80;;;;;;;;;;5084979;28;20385;-79
2022/10/16 19:30:11;;;;;;;31.40;24.23;;;;;;;;;;5060933;28;20490;-79
2022/10/16 19:32:37;;;;;;;33.58;24.50;;;;;;;;;;5080705;23;20527;-78
2022/10/16 19:35:09;;;;;;;32.78;24.50;;;;;;;;;;5114029;22;20109;-77
2022/10/16 19:37:36;;;;;;;37.80;27.20;;;;;;;;;;5096538;28;20020;-79
2022/10/16 19:40:02;;;;;;;42.45;27.45;;;;;;;;;;5102992;28;20035;-78
2022/10/16 19:42:28;;;;;;;39.85;27.65;;;;;;;;;;5093426;28;20024;-78
2022/10/16 19:44:54;;;;;;;36.22;25.00;;;;;;;;;;5103687;28;20024;-78
2022/10/16 19:47:20;;;;;;;67.72;53.03;;;;;;;;;;5088731;28;20058;-79
2022/10/16 19:49:49;;;;;;;48.13;36.45;;;;;;;;;;5111773;28;20035;-79
2022/10/16 19:52:21;;;;;;;36.42;26.70;;;;;;;;;;5113039;28;20385;-79
2022/10/16 19:54:47;;;;;;;37.60;26.80;;;;;;;;;;5097184;28;20173;-78
2022/10/16 19:57:13;;;;;;;35.67;24.67;;;;;;;;;;5088458;28;20021;-78
2022/10/16 19:59:42;;;;;;;35.22;25.60;;;;;;;;;;5096372;28;20491;-78
2022/10/16 20:02:09;;;;;;;37.33;25.92;;;;;;;;;;5092599;28;20099;-79
2022/10/16 20:04:35;;;;;;;37.83;25.00;;;;;;;;;;5101774;28;20023;-79
2022/10/16 20:07:01;;;;;;;39.72;30.30;;;;;;;;;;5098462;28;20118;-77
2022/10/16 20:09:27;;;;;;;36.88;27.40;;;;;;;;;;5105729;28;20355;-77
2022/10/16 20:11:53;;;;;;;35.70;25.25;;;;;;;;;;5106101;28;20024;-77
2022/10/16 20:14:19;;;;;;;32.90;24.17;;;;;;;;;;5093396;28;20050;-78
2022/10/16 20:16:45;;;;;;;33.95;26.17;;;;;;;;;;5094903;28;20472;-78
2022/10/16 20:19:11;;;;;;;38.88;25.67;;;;;;;;;;5116425;28;20035;-78
2022/10/16 20:21:38;;;;;;;42.42;29.05;;;;;;;;;;5117971;27;20046;-77
2022/10/16 20:24:05;;;;;;;40.28;24.48;;;;;;;;;;5118087;27;20114;-77
2022/10/16 20:26:31;;;;;;;31.85;23.30;;;;;;;;;;5106565;27;20082;-78
2022/10/16 20:28:57;;;;;;;31.95;23.65;;;;;;;;;;5105354;28;20047;-78
2022/10/16 20:31:27;;;;;;;35.83;23.15;;;;;;;;;;5096921;28;20024;-78
2022/10/16 20:33:54;;;;;;;31.90;21.10;;;;;;;;;;5096131;28;20052;-77
2022/10/16 20:36:22;;;;;;;29.10;20.95;;;;;;;;;;5104267;28;20020;-78
2022/10/16 20:38:48;;;;;;;29.45;20.75;;;;;;;;;;5116882;28;20020;-79
2022/10/16 20:41:14;;;;;;;32.50;22.30;;;;;;;;;;5099040;28;20019;-77
2022/10/16 20:43:45;;;;;;;30.80;20.20;;;;;;;;;;5086664;28;20020;-78
2022/10/16 20:46:12;;;;;;;37.25;25.52;;;;;;;;;;5101139;28;20034;-79
2022/10/16 20:48:47;;;;;;;41.95;28.35;;;;;;;;;;5099118;28;20031;-78
2022/10/16 20:51:15;;;;;;;35.42;25.33;;;;;;;;;;5084231;28;20124;-77
2022/10/16 20:53:41;;;;;;;32.45;22.75;;;;;;;;;;5087802;28;20094;-79
2022/10/16 20:56:08;;;;;;;28.63;21.50;;;;;;;;;;5078021;28;20031;-78
2022/10/16 20:58:34;;;;;;;26.58;20.42;;;;;;;;;;5096787;28;20012;-79
2022/10/16 21:01:05;;;;;;;22.58;18.08;;;;;;;;;;5092057;28;20040;-79
2022/10/16 21:03:31;;;;;;;27.05;19.27;;;;;;;;;;5085198;28;20028;-78
2022/10/16 21:05:57;;;;;;;34.28;21.83;;;;;;;;;;5098190;28;20555;-79
2022/10/16 21:08:23;;;;;;;32.40;23.23;;;;;;;;;;5116392;28;20050;-79
2022/10/16 21:10:49;;;;;;;31.38;23.67;;;;;;;;;;5104892;28;20020;-78
2022/10/16 21:13:15;;;;;;;40.38;26.60;;;;;;;;;;5096086;28;20024;-79
2022/10/16 21:15:41;;;;;;;33.15;24.92;;;;;;;;;;5095773;28;20028;-78
2022/10/16 21:18:07;;;;;;;28.60;21.65;;;;;;;;;;5110303;28;20047;-80
2022/10/16 21:20:33;;;;;;;31.70;22.83;;;;;;;;;;5095671;28;20028;-78
2022/10/16 21:23:02;;;;;;;30.92;21.02;;;;;;;;;;5095664;28;20028;-78
2022/10/16 21:25:28;;;;;;;24.05;20.45;;;;;;;;;;5095727;28;20042;-79
2022/10/16 21:27:54;;;;;;;29.20;20.85;;;;;;;;;;5095628;28;20045;-78
2022/10/16 21:30:20;;;;;;;24.48;20.15;;;;;;;;;;5077145;28;20489;-78
2022/10/16 21:32:46;;;;;;;32.83;25.88;;;;;;;;;;5076692;28;20031;-79
2022/10/16 21:35:14;;;;;;;28.15;19.25;;;;;;;;;;5095685;28;20490;-79
2022/10/16 21:37:40;;;;;;;27.13;19.92;;;;;;;;;;5091795;28;20028;-79
2022/10/16 21:40:06;;;;;;;40.45;29.75;;;;;;;;;;5095533;28;20036;-78
2022/10/16 21:42:32;;;;;;;38.90;27.52;;;;;;;;;;5095353;28;20047;-78
2022/10/16 21:44:58;;;;;;;31.58;23.75;;;;;;;;;;5085749;28;20023;-78
2022/10/16 21:47:24;;;;;;;34.90;24.05;;;;;;;;;;5101587;28;20040;-78
2022/10/16 21:49:50;;;;;;;35.55;25.58;;;;;;;;;;5090863;28;20024;-79
2022/10/16 21:52:16;;;;;;;33.47;25.45;;;;;;;;;;5077042;28;20032;-77
2022/10/16 21:54:42;;;;;;;27.90;22.73;;;;;;;;;;5089204;28;20497;-78
2022/10/16 21:57:08;;;;;;;26.25;19.13;;;;;;;;;;5096744;28;20085;-77
2022/10/16 21:59:34;;;;;;;23.75;18.80;;;;;;;;;;5083738;28;20032;-78
2022/10/16 22:02:02;;;;;;;26.25;17.65;;;;;;;;;;5094444;28;20025;-79
2022/10/16 22:04:28;;;;;;;45.95;28.83;;;;;;;;;;5076146;28;20036;-77
2022/10/16 22:06:54;;;;;;;30.33;20.20;;;;;;;;;;5076145;28;20503;-79
2022/10/16 22:09:20;;;;;;;25.15;17.20;;;;;;;;;;5076160;28;20481;-79
2022/10/16 22:11:46;;;;;;;19.48;15.75;;;;;;;;;;5094563;28;20490;-77
2022/10/16 22:14:14;;;;;;;23.45;15.40;;;;;;;;;;5094140;28;20044;-78
2022/10/16 22:16:41;;;;;;;24.45;15.55;;;;;;;;;;5099516;28;20028;-77
2022/10/16 22:19:07;;;;;;;23.77;16.15;;;;;;;;;;5083631;28;20027;-78
2022/10/16 22:21:40;;;;;;;29.20;17.63;;;;;;;;;;5100111;28;20027;-78
2022/10/16 22:24:07;;;;;;;23.23;16.52;;;;;;;;;;5098949;28;20445;-77
2022/10/16 22:26:33;;;;;;;22.40;16.70;;;;;;;;;;5096731;28;20377;-78
2022/10/16 22:29:00;;;;;;;26.83;15.93;;;;;;;;;;5101313;28;20021;-77
2022/10/16 22:31:26;;;;;;;31.85;20.60;;;;;;;;;;5088962;28;20035;-77
2022/10/16 22:34:04;;;;;;;25.27;18.38;;;;;;;;;;5094289;28;20485;-77
2022/10/16 22:36:31;;;;;;;28.48;18.63;;;;;;;;;;5102948;28;20020;-78
2022/10/16 22:38:57;;;;;;;31.70;19.35;;;;;;;;;;5113848;28;20080;-78
2022/10/16 22:41:24;;;;;;;27.45;19.05;;;;;;;;;;5093373;28;20359;-75
2022/10/16 22:43:50;;;;;;;26.05;17.63;;;;;;;;;;5098051;28;20053;-72
2022/10/16 22:46:21;;;;;;;24.73;17.92;;;;;;;;;;5082395;28;20553;-75
2022/10/16 22:48:47;;;;;;;20.00;13.77;;;;;;;;;;5095934;28;20503;-77
2022/10/16 22:51:14;;;;;;;26.95;16.30;;;;;;;;;;5096156;28;20024;-78
2022/10/16 22:53:40;;;;;;;22.52;16.73;;;;;;;;;;5083369;28;20026;-79
2022/10/16 22:56:06;;;;;;;25.45;17.73;;;;;;;;;;5094954;28;20056;-76
2022/10/16 22:58:32;;;;;;;24.58;17.08;;;;;;;;;;5078786;28;20039;-74
2022/10/16 23:00:58;;;;;;;20.80;15.25;;;;;;;;;;5098898;28;20058;-75
2022/10/16 23:03:25;;;;;;;19.67;15.15;;;;;;;;;;5101652;28;20412;-74
2022/10/16 23:05:51;;;;;;;21.48;14.35;;;;;;;;;;5097381;28;20030;-74
2022/10/16 23:08:17;;;;;;;18.20;15.13;;;;;;;;;;5092655;28;20544;-75
2022/10/16 23:10:48;;;;;;;22.35;15.80;;;;;;;;;;5087817;28;20027;-75
2022/10/16 23:13:14;;;;;;;20.10;14.85;;;;;;;;;;5093306;28;20020;-75
2022/10/16 23:15:41;;;;;;;24.05;14.85;;;;;;;;;;5092755;28;20020;-75
2022/10/16 23:18:07;;;;;;;23.85;16.38;;;;;;;;;;5092715;28;20027;-75
2022/10/16 23:20:33;;;;;;;22.45;15.95;;;;;;;;;;5092675;28;20102;-72
2022/10/16 23:22:59;;;;;;;21.20;15.52;;;;;;;;;;5106681;28;20027;-72
2022/10/16 23:25:25;;;;;;;20.58;14.00;;;;;;;;;;5092639;28;20095;-69
2022/10/16 23:27:54;;;;;;;18.95;14.13;;;;;;;;;;5092633;28;20023;-71
2022/10/16 23:30:20;;;;;;;20.48;14.38;;;;;;;;;;5092568;28;20024;-72
2022/10/16 23:32:47;;;;;;;21.10;15.30;;;;;;;;;;5092458;28;20028;-72
2022/10/16 23:35:13;;;;;;;19.63;13.88;;;;;;;;;;5092336;28;20056;-71
2022/10/16 23:37:39;;;;;;;21.88;14.32;;;;;;;;;;5106850;28;20524;-71
2022/10/16 23:40:05;;;;;;;17.77;14.50;;;;;;;;;;5092117;28;20482;-69
2022/10/16 23:42:31;;;;;;;20.35;14.27;;;;;;;;;;5091996;28;20074;-68
2022/10/16 23:44:57;;;;;;;16.45;13.63;;;;;;;;;;5092262;28;20099;-69
2022/10/16 23:47:23;;;;;;;20.83;13.52;;;;;;;;;;5092349;28;20020;-72
2022/10/16 23:49:49;;;;;;;18.08;13.55;;;;;;;;;;5092355;28;20024;-69
2022/10/16 23:52:15;;;;;;;16.02;13.07;;;;;;;;;;5092282;28;20027;-71
2022/10/16 23:54:41;;;;;;;15.77;12.57;;;;;;;;;;5106012;28;20032;-69
2022/10/16 23:57:08;;;;;;;17.23;12.18;;;;;;;;;;5092588;28;20028;-70
2022/10/16 23:59:34;;;;;;;13.88;11.70;;;;;;;;;;5073687;28;20375;-70
